Time;durP1;ratioP1;P1;durP2;ratioP2;P2;SDS_P1;SDS_P2;PMS_P1;PMS_P2;Temp;Humidity;BMP_temperature;BMP_pressure;BME280_temperature;BME280_humidity;BME280_pressure;Samples;Min_cycle;Max_cycle;Signal;HPM_P1;HPM_P2
2021/05/04 00:02:15;;;;;;;7.15;3.70;;;;;;;1.16;89.80;93220.09;1825604;77;21622;-79
2021/05/04 00:04:43;;;;;;;2.85;2.65;;;;;;;1.19;89.69;93225.55;1801978;79;21481;-78
2021/05/04 00:07:11;;;;;;;4.85;3.27;;;;;;;1.18;89.72;93227.23;1833732;77;21199;-77
2021/05/04 00:09:40;;;;;;;3.10;2.80;;;;;;;1.18;89.68;93228.02;1800207;79;21115;-76
2021/05/04 00:12:08;;;;;;;3.25;2.62;;;;;;;1.21;89.72;93229.24;1834266;78;21673;-81
2021/05/04 00:14:35;;;;;;;3.22;2.12;;;;;;;1.21;89.51;93220.64;1793195;79;21690;-77
2021/05/04 00:17:03;;;;;;;2.62;2.25;;;;;;;1.15;89.52;93225.23;1806049;78;21192;-79
2021/05/04 00:19:32;;;;;;;2.40;2.20;;;;;;;1.08;89.54;93214.32;1784379;78;21125;-77
2021/05/04 00:22:00;;;;;;;3.67;2.90;;;;;;;1.05;89.52;93219.78;1797742;79;21332;-77
2021/05/04 00:24:27;;;;;;;13.25;6.08;;;;;;;1.00;89.44;93216.58;1807624;79;21657;-77
2021/05/04 00:26:54;;;;;;;16.93;5.85;;;;;;;0.99;89.55;93221.72;1808548;78;21185;-77
2021/05/04 00:29:22;;;;;;;4.80;2.72;;;;;;;0.97;89.62;93219.38;1794352;79;21734;-76
2021/05/04 00:31:49;;;;;;;6.95;3.58;;;;;;;0.97;89.76;93221.48;1798422;79;21203;-78
2021/05/04 00:34:17;;;;;;;14.58;6.12;;;;;;;1.00;90.01;93215.25;1808256;79;21173;-77
2021/05/04 00:36:44;;;;;;;5.95;3.50;;;;;;;1.06;90.05;93217.91;1807414;79;21622;-78
2021/05/04 00:39:12;;;;;;;2.98;2.45;;;;;;;1.09;89.83;93211.32;1813883;77;21173;-79
2021/05/04 00:41:39;;;;;;;6.03;4.35;;;;;;;1.12;89.78;93209.84;1820336;77;21584;-79
2021/05/04 00:44:07;;;;;;;2.83;2.30;;;;;;;1.12;89.64;93211.95;1840236;77;21160;-78
2021/05/04 00:46:35;;;;;;;8.60;5.03;;;;;;;1.11;89.58;93210.41;1840207;78;21165;-78
2021/05/04 00:49:02;;;;;;;7.92;3.90;;;;;;;1.10;89.56;93209.42;1840581;78;21623;-78
2021/05/04 00:51:30;;;;;;;4.85;3.10;;;;;;;1.09;89.56;93196.59;1840334;78;21154;-78
2021/05/04 00:53:57;;;;;;;2.37;2.00;;;;;;;1.08;89.39;93208.40;1839860;77;21184;-78
2021/05/04 00:56:24;;;;;;;2.60;2.17;;;;;;;1.03;89.29;93201.95;1838680;77;21509;-78
2021/05/04 00:58:52;;;;;;;4.00;2.17;;;;;;;0.98;89.67;93212.92;1839993;78;21169;-78
2021/05/04 01:01:19;;;;;;;3.17;2.40;;;;;;;1.00;89.95;93219.27;1839528;78;21165;-78
2021/05/04 01:03:47;;;;;;;5.53;4.85;;;;;;;1.00;90.08;93217.92;1817405;78;21168;-78
2021/05/04 01:06:14;;;;;;;8.00;5.37;;;;;;;0.99;90.15;93220.39;1808887;78;21819;-78
2021/05/04 01:08:43;;;;;;;6.47;4.40;;;;;;;1.01;90.32;93222.92;1819191;78;21183;-78
2021/05/04 01:11:10;;;;;;;7.08;4.00;;;;;;;1.06;90.18;93220.03;1797801;79;21179;-78
2021/05/04 01:13:37;;;;;;;6.83;4.12;;;;;;;1.11;90.08;93223.80;1785341;79;21620;-78
2021/05/04 01:16:05;;;;;;;4.17;3.65;;;;;;;1.13;89.92;93220.77;1803642;79;21599;-78
2021/05/04 01:18:33;;;;;;;5.90;3.65;;;;;;;1.12;90.03;93219.21;1851394;77;21395;-78
2021/05/04 01:21:01;;;;;;;3.65;2.72;;;;;;;1.11;89.92;93221.12;1841744;77;21157;-79
2021/05/04 01:23:28;;;;;;;2.85;2.65;;;;;;;1.09;89.85;93217.20;1821800;78;21621;-78
2021/05/04 01:25:55;;;;;;;3.52;2.55;;;;;;;1.11;89.68;93213.08;1831588;78;21433;-79
2021/05/04 01:28:23;;;;;;;2.00;1.80;;;;;;;1.08;89.61;93212.98;1805546;77;21259;-78
2021/05/04 01:30:50;;;;;;;1.92;1.72;;;;;;;1.09;89.81;93212.66;1820546;78;21836;-78
2021/05/04 01:33:18;;;;;;;1.70;1.60;;;;;;;1.09;89.62;93207.30;1790515;78;21150;-80
2021/05/04 01:35:46;;;;;;;2.37;1.57;;;;;;;1.08;89.54;93212.42;1825703;78;21649;-79
2021/05/04 01:38:14;;;;;;;1.60;1.50;;;;;;;1.04;89.30;93212.11;1824483;78;21166;-79
2021/05/04 01:40:43;;;;;;;1.45;1.35;;;;;;;0.93;89.23;93209.13;1801556;79;21130;-79
2021/05/04 01:43:10;;;;;;;3.00;1.20;;;;;;;0.84;89.51;93203.14;1802995;79;21357;-78
2021/05/04 01:45:37;;;;;;;1.70;1.20;;;;;;;0.83;90.07;93201.55;1802763;79;21547;-78
2021/05/04 01:48:05;;;;;;;1.60;1.50;;;;;;;0.81;90.37;93206.48;1803081;79;21905;-79
2021/05/04 01:50:33;;;;;;;1.37;1.20;;;;;;;0.86;90.60;93207.02;1802825;79;21163;-79
2021/05/04 01:53:01;;;;;;;1.57;1.47;;;;;;;0.88;90.46;93208.80;1818659;77;21646;-78
2021/05/04 01:55:28;;;;;;;1.87;1.72;;;;;;;0.82;90.37;93204.80;1770127;80;22863;-78
2021/05/04 01:57:56;;;;;;;3.10;1.50;;;;;;;0.79;90.64;93202.82;1801446;79;21148;-79
2021/05/04 02:00:23;;;;;;;0.90;0.90;;;;;;;0.83;90.97;93205.03;1789635;78;21210;-78
2021/05/04 02:02:50;;;;;;;1.62;1.32;;;;;;;0.86;90.75;93207.02;1814669;78;21159;-79
2021/05/04 02:05:18;;;;;;;1.87;1.60;;;;;;;0.87;90.56;93213.95;1781739;79;21175;-78
2021/05/04 02:07:46;;;;;;;3.17;2.22;;;;;;;0.86;90.40;93208.91;1787638;79;21515;-78
2021/05/04 02:10:14;;;;;;;1.77;1.50;;;;;;;0.84;90.39;93212.50;1845145;77;21122;-79
2021/05/04 02:12:42;;;;;;;1.30;1.20;;;;;;;0.80;90.36;93209.72;1807083;78;21160;-79
2021/05/04 02:15:11;;;;;;;1.27;1.27;;;;;;;0.78;90.43;93213.28;1814851;78;21104;-79
2021/05/04 02:17:38;;;;;;;1.32;1.22;;;;;;;0.73;90.66;93211.63;1793960;78;21200;-79
2021/05/04 02:20:07;;;;;;;1.10;1.07;;;;;;;0.75;90.93;93211.28;1772045;80;21345;-79
2021/05/04 02:22:35;;;;;;;2.92;2.00;;;;;;;0.80;91.14;93216.98;1817914;76;21205;-78
2021/05/04 02:25:04;;;;;;;1.37;1.25;;;;;;;0.83;90.96;93214.94;1856323;76;21159;-78
2021/05/04 02:27:31;;;;;;;1.85;1.10;;;;;;;0.85;90.84;93209.48;1852436;76;21120;-79
2021/05/04 02:29:58;;;;;;;1.62;1.25;;;;;;;0.89;90.63;93207.67;1831982;77;21597;-79
2021/05/04 02:32:34;;;;;;;2.02;1.27;;;;;;;0.90;90.43;93209.26;1831430;77;21329;-79
2021/05/04 02:34:58;;;;;;;1.00;1.00;;;;;;;0.88;90.19;93208.80;1816988;78;21497;-79
2021/05/04 02:37:26;;;;;;;1.35;1.17;;;;;;;0.85;90.13;93200.67;1807623;79;21689;-79
2021/05/04 02:39:53;;;;;;;1.35;1.25;;;;;;;0.85;90.28;93202.01;1808901;79;21182;-79
2021/05/04 02:42:20;;;;;;;1.10;1.05;;;;;;;0.80;89.97;93203.03;1831460;77;21164;-78
2021/05/04 02:44:47;;;;;;;1.30;0.80;;;;;;;0.68;89.83;93203.06;1815118;78;22084;-79
2021/05/04 02:47:15;;;;;;;5.42;0.80;;;;;;;0.61;90.34;93202.86;1838088;77;22085;-79
2021/05/04 02:49:45;;;;;;;0.90;0.85;;;;;;;0.64;90.74;93210.19;1832537;78;21156;-80
2021/05/04 02:52:13;;;;;;;0.98;0.95;;;;;;;0.68;90.64;93213.77;1837373;78;21167;-80
2021/05/04 02:54:42;;;;;;;1.47;1.37;;;;;;;0.63;90.46;93210.75;1803092;77;21121;-80
2021/05/04 02:57:09;;;;;;;6.10;3.58;;;;;;;0.61;90.68;93216.23;1789286;79;21359;-79
2021/05/04 02:59:38;;;;;;;5.53;3.92;;;;;;;0.64;90.91;93206.98;1785308;80;21203;-80
2021/05/04 03:02:05;;;;;;;3.98;3.33;;;;;;;0.66;90.71;93211.98;1870827;76;21156;-80
2021/05/04 03:04:33;;;;;;;2.08;1.67;;;;;;;0.61;90.63;93212.22;1853969;76;21187;-80
2021/05/04 03:07:02;;;;;;;1.42;1.32;;;;;;;0.53;90.81;93216.58;1839162;78;21148;-80
2021/05/04 03:09:30;;;;;;;2.52;1.15;;;;;;;0.55;91.34;93218.91;1801097;79;21895;-79
2021/05/04 03:11:58;;;;;;;1.20;1.10;;;;;;;0.57;91.24;93214.79;1785259;79;21155;-79
2021/05/04 03:14:25;;;;;;;1.15;1.10;;;;;;;0.54;91.04;93213.34;1814210;78;21219;-79
2021/05/04 03:16:53;;;;;;;0.80;0.80;;;;;;;0.50;91.11;93209.78;1832838;76;21167;-79
2021/05/04 03:19:20;;;;;;;1.42;1.32;;;;;;;0.51;91.25;93217.46;1797367;78;21204;-79
2021/05/04 03:21:48;;;;;;;1.27;1.10;;;;;;;0.50;91.29;93221.83;1779545;78;21355;-79
2021/05/04 03:24:15;;;;;;;1.40;1.10;;;;;;;0.51;91.37;93221.47;1818306;77;21190;-79
2021/05/04 03:26:45;;;;;;;1.60;1.50;;;;;;;0.57;91.54;93226.83;1784247;78;21168;-79
2021/05/04 03:29:13;;;;;;;1.40;1.30;;;;;;;0.63;91.49;93221.45;1812034;77;21204;-79
2021/05/04 03:31:40;;;;;;;1.50;1.40;;;;;;;0.69;91.43;93232.72;1780404;77;21179;-78
2021/05/04 03:34:07;;;;;;;1.70;1.60;;;;;;;0.71;91.40;93229.94;1798136;79;21451;-79
2021/05/04 03:36:36;;;;;;;2.77;1.45;;;;;;;0.79;91.39;93232.80;1849824;77;21163;-79
2021/05/04 03:39:04;;;;;;;6.05;4.62;;;;;;;0.82;91.08;93239.59;1812363;78;21136;-78
2021/05/04 03:41:31;;;;;;;8.35;6.50;;;;;;;0.83;90.98;93243.05;1836956;77;21124;-78
2021/05/04 03:43:58;;;;;;;7.80;5.87;;;;;;;0.83;91.20;93236.36;1799460;79;21487;-78
2021/05/04 03:46:26;;;;;;;6.70;5.25;;;;;;;0.89;91.32;93236.35;1836962;78;21344;-79
2021/05/04 03:48:55;;;;;;;6.67;5.15;;;;;;;0.93;91.19;93243.92;1792553;79;21216;-78
2021/05/04 03:51:23;;;;;;;6.75;5.12;;;;;;;0.94;91.16;93240.13;1780844;79;21673;-78
2021/05/04 03:53:50;;;;;;;6.30;5.12;;;;;;;0.97;91.15;93244.24;1794342;79;21186;-79
2021/05/04 03:56:18;;;;;;;6.25;5.30;;;;;;;0.99;91.26;93240.47;1827650;77;21299;-79
2021/05/04 03:58:45;;;;;;;5.03;4.53;;;;;;;1.01;91.31;93245.69;1833613;77;22178;-79
2021/05/04 04:01:13;;;;;;;10.25;4.92;;;;;;;1.06;91.39;93245.47;1833611;78;21156;-78
2021/05/04 04:03:41;;;;;;;6.30;4.70;;;;;;;1.12;91.28;93249.45;1774843;79;21188;-80
2021/05/04 04:06:09;;;;;;;5.05;4.50;;;;;;;1.18;91.35;93249.44;1828972;77;21151;-78
2021/05/04 04:08:37;;;;;;;5.58;4.55;;;;;;;1.30;91.58;93253.97;1797667;79;21181;-78
2021/05/04 04:11:05;;;;;;;7.37;5.55;;;;;;;1.46;91.82;93246.76;1803309;78;21357;-78
2021/05/04 04:13:34;;;;;;;7.08;5.67;;;;;;;1.58;90.90;93249.97;1765628;80;21622;-78
2021/05/04 04:16:02;;;;;;;8.90;5.45;;;;;;;1.54;90.17;93250.41;1779466;79;21186;-78
2021/05/04 04:18:30;;;;;;;7.58;5.70;;;;;;;1.47;90.07;93256.94;1810633;78;21476;-78
2021/05/04 04:20:57;;;;;;;6.65;5.10;;;;;;;1.41;90.23;93254.27;1798285;78;21244;-79
2021/05/04 04:23:25;;;;;;;6.10;4.72;;;;;;;1.40;90.61;93249.48;1807743;78;22229;-81
2021/05/04 04:25:53;;;;;;;7.72;5.37;;;;;;;1.43;90.96;93252.82;1738957;80;21235;-79
2021/05/04 04:28:21;;;;;;;7.90;6.03;;;;;;;1.48;91.04;93242.41;1769470;79;21188;-78
2021/05/04 04:30:48;;;;;;;5.42;4.85;;;;;;;1.52;91.03;93251.89;1820276;78;21175;-78
2021/05/04 04:33:26;;;;;;;6.58;5.33;;;;;;;1.53;90.97;93244.06;1832431;78;21171;-78
2021/05/04 04:35:54;;;;;;;4.65;3.87;;;;;;;1.62;91.13;93250.84;1795403;79;21294;-77
2021/05/04 04:38:21;;;;;;;4.97;4.25;;;;;;;1.83;92.16;93248.48;1817997;77;21163;-77
2021/05/04 04:40:49;;;;;;;6.22;5.20;;;;;;;2.03;91.21;93256.88;1841512;77;21621;-80
2021/05/04 04:43:16;;;;;;;8.05;6.60;;;;;;;2.13;90.06;93257.69;1813411;77;21164;-80
2021/05/04 04:45:44;;;;;;;5.47;4.97;;;;;;;2.17;89.37;93253.75;1821855;78;21159;-77
2021/05/04 04:48:12;;;;;;;8.78;6.10;;;;;;;2.16;88.79;93252.97;1782528;78;21420;-78
2021/05/04 04:50:40;;;;;;;8.10;5.37;;;;;;;2.09;88.53;93258.16;1779215;79;21172;-79
2021/05/04 04:53:09;;;;;;;6.65;5.22;;;;;;;2.01;88.50;93264.47;1831218;78;21105;-78
2021/05/04 04:55:36;;;;;;;6.95;5.47;;;;;;;1.94;88.66;93258.92;1806071;79;21199;-77
2021/05/04 04:58:04;;;;;;;7.33;5.80;;;;;;;1.88;88.56;93265.12;1789926;77;21425;-78
2021/05/04 05:00:33;;;;;;;5.97;5.10;;;;;;;1.84;88.88;93262.10;1803374;79;21349;-77
2021/05/04 05:03:01;;;;;;;6.12;5.12;;;;;;;1.85;89.11;93263.69;1833221;77;21614;-77
2021/05/04 05:05:29;;;;;;;5.80;5.00;;;;;;;1.88;89.04;93255.73;1789120;78;21177;-78
2021/05/04 05:07:56;;;;;;;6.03;4.83;;;;;;;1.92;89.44;93252.58;1793273;78;21186;-79
2021/05/04 05:10:24;;;;;;;5.10;4.60;;;;;;;2.00;89.43;93251.42;1817387;78;21186;-78
2021/05/04 05:12:52;;;;;;;6.25;5.00;;;;;;;1.99;88.98;93248.50;1829168;77;21427;-79
2021/05/04 05:15:22;;;;;;;6.95;4.28;;;;;;;1.98;88.85;93249.06;1801315;79;21046;-79
2021/05/04 05:17:50;;;;;;;4.90;4.30;;;;;;;1.98;89.37;93247.73;1808812;77;21155;-77
2021/05/04 05:20:18;;;;;;;5.03;4.33;;;;;;;1.98;88.92;93253.09;1768396;80;21657;-77
2021/05/04 05:22:45;;;;;;;4.05;3.27;;;;;;;1.95;88.95;93242.48;1810044;78;21203;-78
2021/05/04 05:25:13;;;;;;;3.62;3.20;;;;;;;1.99;89.09;93243.14;1789237;79;22497;-78
2021/05/04 05:27:43;;;;;;;4.42;3.83;;;;;;;2.01;88.94;93249.73;1789437;79;21180;-79
2021/05/04 05:30:13;;;;;;;4.00;3.60;;;;;;;2.11;89.45;93253.81;1794318;79;21175;-79
2021/05/04 05:32:40;;;;;;;3.42;3.08;;;;;;;2.37;90.37;93253.27;1799400;79;21626;-79
2021/05/04 05:35:09;;;;;;;4.72;4.30;;;;;;;2.76;90.61;93252.84;1817081;78;21183;-78
2021/05/04 05:37:37;;;;;;;5.17;3.83;;;;;;;3.04;88.13;93255.37;1832834;78;22450;-78
2021/05/04 05:40:07;;;;;;;4.72;4.22;;;;;;;3.06;85.99;93249.09;1838767;77;21189;-79
2021/05/04 05:42:35;;;;;;;3.87;3.47;;;;;;;3.15;86.92;93249.66;1790300;79;21043;-79
2021/05/04 05:45:02;;;;;;;4.95;3.65;;;;;;;3.35;85.47;93254.50;1822354;77;21179;-77
2021/05/04 05:47:32;;;;;;;4.90;3.60;;;;;;;3.67;84.14;93256.26;1816207;78;21005;-79
2021/05/04 05:50:02;;;;;;;3.77;3.40;;;;;;;3.98;82.83;93260.67;1783797;80;22084;-78
2021/05/04 05:52:31;;;;;;;4.03;3.62;;;;;;;4.44;82.60;93252.06;1802500;79;21167;-79
2021/05/04 05:55:00;;;;;;;4.12;3.47;;;;;;;5.14;80.77;93250.00;1794693;78;21208;-79
2021/05/04 05:57:29;;;;;;;4.25;3.50;;;;;;;5.95;79.11;93238.11;1790595;77;21182;-79
2021/05/04 05:59:57;;;;;;;3.40;3.10;;;;;;;6.55;74.93;93247.36;1838857;77;21401;-79
2021/05/04 06:02:24;;;;;;;2.80;2.60;;;;;;;6.78;71.91;93244.45;1785787;80;21633;-79
2021/05/04 06:04:52;;;;;;;2.75;2.55;;;;;;;6.79;70.26;93238.47;1782111;78;21202;-78
2021/05/04 06:07:19;;;;;;;4.00;2.70;;;;;;;6.72;71.18;93247.86;1783898;79;21175;-80
2021/05/04 06:09:47;;;;;;;5.20;2.95;;;;;;;6.94;71.08;93252.86;1802528;78;21188;-80
2021/05/04 06:12:16;;;;;;;2.98;2.50;;;;;;;7.46;71.18;93249.50;1836555;78;21179;-78
2021/05/04 06:14:43;;;;;;;2.47;2.27;;;;;;;8.20;69.53;93246.30;1836564;78;22094;-79
2021/05/04 06:17:12;;;;;;;1.90;1.80;;;;;;;8.56;65.53;93241.53;1816793;77;21186;-80
2021/05/04 06:19:41;;;;;;;3.12;2.42;;;;;;;8.72;65.87;93248.69;1804430;79;21189;-80
2021/05/04 06:22:09;;;;;;;6.30;3.08;;;;;;;8.87;65.49;93246.17;1844618;77;21593;-82
2021/05/04 06:24:36;;;;;;;2.42;2.00;;;;;;;8.98;65.30;93244.23;1845672;77;21539;-80
2021/05/04 06:27:05;;;;;;;2.52;2.33;;;;;;;9.29;64.88;93245.95;1798392;79;22504;-79
2021/05/04 06:29:33;;;;;;;2.70;2.50;;;;;;;9.63;63.25;93244.12;1810940;77;21180;-80
2021/05/04 06:32:09;;;;;;;2.35;2.20;;;;;;;9.76;62.24;93243.11;1793263;79;21495;-81
2021/05/04 06:34:33;;;;;;;2.90;2.55;;;;;;;9.75;59.79;93233.42;1808444;78;21159;-80
2021/05/04 06:37:00;;;;;;;2.37;2.17;;;;;;;9.68;59.31;93234.21;1812555;77;21401;-79
2021/05/04 06:39:29;;;;;;;3.20;2.72;;;;;;;9.60;58.10;93229.39;1801055;79;21468;-81
2021/05/04 06:41:57;;;;;;;2.65;2.30;;;;;;;9.45;58.98;93232.73;1795934;79;21196;-80
2021/05/04 06:44:25;;;;;;;2.25;2.05;;;;;;;9.41;56.73;93230.61;1830101;77;21179;-80
2021/05/04 06:46:52;;;;;;;3.33;2.45;;;;;;;9.55;57.81;93220.86;1803436;79;21174;-81
2021/05/04 06:49:20;;;;;;;2.35;2.15;;;;;;;10.00;56.70;93217.00;1797908;79;21152;-79
2021/05/04 06:51:48;;;;;;;3.00;2.70;;;;;;;10.32;54.95;93217.63;1817201;77;21333;-80
2021/05/04 06:54:15;;;;;;;3.55;2.92;;;;;;;10.61;54.62;93222.89;1845456;77;21729;-79
2021/05/04 06:56:43;;;;;;;2.77;2.58;;;;;;;10.48;51.95;93217.13;1818687;78;21473;-79
2021/05/04 06:59:11;;;;;;;3.02;2.70;;;;;;;10.33;53.27;93220.52;1805332;78;21174;-79
2021/05/04 07:01:39;;;;;;;2.80;2.60;;;;;;;10.28;53.42;93218.83;1800198;79;21467;-79
2021/05/04 07:04:07;;;;;;;2.65;2.45;;;;;;;10.31;54.61;93213.38;1858635;76;21366;-79
2021/05/04 07:06:34;;;;;;;3.33;2.70;;;;;;;10.22;50.13;93212.41;1845854;77;21173;-79
2021/05/04 07:09:04;;;;;;;2.90;2.50;;;;;;;9.82;54.09;93226.60;1796998;79;21552;-77
2021/05/04 07:11:36;;;;;;;3.72;2.62;;;;;;;9.78;53.49;93223.91;1837325;77;21739;-80
2021/05/04 07:14:05;;;;;;;3.17;2.40;;;;;;;9.76;51.20;93223.51;1807787;79;21244;-79
2021/05/04 07:16:35;;;;;;;2.62;2.42;;;;;;;9.39;51.22;93228.86;1806277;76;21395;-81
2021/05/04 07:19:03;;;;;;;2.58;2.37;;;;;;;9.30;52.81;93223.66;1791980;78;21177;-82
2021/05/04 07:21:32;;;;;;;3.37;3.08;;;;;;;9.37;54.57;93215.51;1810036;78;21432;-79
2021/05/04 07:24:00;;;;;;;3.40;2.87;;;;;;;9.33;53.21;93218.81;1798117;79;21204;-83
2021/05/04 07:26:28;;;;;;;2.80;2.22;;;;;;;9.30;55.32;93222.31;1776940;79;21774;-82
2021/05/04 07:28:56;;;;;;;3.00;2.75;;;;;;;9.43;55.35;93220.13;1791210;79;21368;-78
2021/05/04 07:31:24;;;;;;;4.20;2.55;;;;;;;9.64;52.43;93214.45;1814077;79;21222;-80
2021/05/04 07:33:52;;;;;;;2.60;2.40;;;;;;;9.80;52.60;93218.83;1812764;78;21159;-80
2021/05/04 07:36:21;;;;;;;3.22;2.90;;;;;;;9.94;51.25;93230.23;1781278;78;21666;-80
2021/05/04 07:38:49;;;;;;;3.30;2.40;;;;;;;10.02;53.16;93220.88;1842101;77;21171;-79
2021/05/04 07:41:16;;;;;;;2.33;1.95;;;;;;;10.19;54.55;93223.29;1789039;78;22501;-79
2021/05/04 07:43:44;;;;;;;2.83;2.62;;;;;;;10.36;52.57;93215.66;1858286;76;21183;-80
2021/05/04 07:46:12;;;;;;;7.40;2.55;;;;;;;10.36;51.47;93221.69;1844238;77;21176;-79
2021/05/04 07:48:39;;;;;;;2.42;2.20;;;;;;;10.13;48.98;93222.18;1797158;79;21295;-79
2021/05/04 07:51:07;;;;;;;2.62;2.05;;;;;;;10.00;51.75;93221.84;1866080;76;21164;-80
2021/05/04 07:53:35;;;;;;;2.35;2.10;;;;;;;10.11;52.10;93219.07;1853678;76;22022;-76
2021/05/04 07:56:03;;;;;;;2.10;1.77;;;;;;;10.28;50.77;93226.39;1808494;78;21195;-77
2021/05/04 07:58:31;;;;;;;2.40;2.20;;;;;;;10.51;50.65;93221.00;1819676;77;21390;-76
2021/05/04 08:00:59;;;;;;;7.25;2.80;;;;;;;10.63;48.77;93209.64;1819812;77;22035;-82
2021/05/04 08:03:27;;;;;;;2.85;2.42;;;;;;;10.71;49.48;93204.34;1831904;77;21409;-79
2021/05/04 08:05:56;;;;;;;1.95;1.85;;;;;;;10.92;49.24;93210.20;1870611;76;21606;-78
2021/05/04 08:08:23;;;;;;;2.60;2.40;;;;;;;11.05;48.43;93212.59;1845252;76;21146;-79
2021/05/04 08:10:51;;;;;;;2.05;1.72;;;;;;;10.85;46.19;93204.81;1802247;79;21114;-77
2021/05/04 08:13:20;;;;;;;2.52;2.30;;;;;;;10.44;46.95;93204.92;1843571;77;21071;-79
2021/05/04 08:15:51;;;;;;;4.78;2.90;;;;;;;10.15;47.30;93207.59;1848560;77;21070;-79
2021/05/04 08:18:19;;;;;;;2.77;2.50;;;;;;;10.03;48.00;93203.98;1798955;79;21340;-79
2021/05/04 08:20:57;;;;;;;2.25;2.05;;;;;;;10.04;48.51;93211.75;1837628;77;21038;-78
2021/05/04 08:23:18;;;;;;;2.87;2.60;;;;;;;10.23;46.57;93203.69;1820089;78;21195;-78
2021/05/04 08:25:45;;;;;;;4.45;2.20;;;;;;;10.28;46.04;93199.80;1798060;78;21156;-78
2021/05/04 08:28:13;;;;;;;4.17;2.52;;;;;;;10.09;46.46;93182.80;1853505;76;21148;-78
2021/05/04 08:30:40;;;;;;;3.47;2.30;;;;;;;9.89;47.27;93191.23;1805104;79;21179;-78
2021/05/04 08:33:07;;;;;;;3.98;2.95;;;;;;;9.72;46.74;93190.17;1838009;78;21197;-80
2021/05/04 08:35:35;;;;;;;3.62;2.33;;;;;;;9.67;50.79;93190.59;1800972;79;21168;-77
2021/05/04 08:38:02;;;;;;;5.28;2.92;;;;;;;9.77;49.41;93187.63;1798714;79;21163;-81
2021/05/04 08:40:30;;;;;;;2.47;2.12;;;;;;;9.84;46.07;93182.92;1807792;79;21499;-79
2021/05/04 08:42:57;;;;;;;2.25;2.05;;;;;;;9.92;47.46;93199.96;1838035;77;21375;-82
2021/05/04 08:45:25;;;;;;;2.20;2.10;;;;;;;10.13;48.33;93206.64;1794460;79;21277;-79
2021/05/04 08:47:54;;;;;;;2.75;2.00;;;;;;;10.39;46.50;93191.77;1854080;76;21178;-81
2021/05/04 08:50:22;;;;;;;2.25;1.75;;;;;;;10.60;46.51;93190.05;1806578;78;21167;-81
2021/05/04 08:52:51;;;;;;;1.77;1.67;;;;;;;10.94;46.96;93184.15;1839432;77;21111;-78
2021/05/04 08:55:19;;;;;;;2.22;2.02;;;;;;;11.10;43.06;93185.55;1810116;78;21372;-79
2021/05/04 08:57:46;;;;;;;2.40;1.80;;;;;;;10.91;43.41;93193.11;1787761;78;21972;-82
2021/05/04 09:00:15;;;;;;;2.17;1.50;;;;;;;10.70;45.81;93191.92;1819090;78;21300;-78
2021/05/04 09:03:06;;;;;;;3.50;2.50;;;;;;;10.72;46.40;93199.10;1786560;78;21429;-78
2021/05/04 09:06:32;;;;;;;3.50;2.10;;;;;;;10.63;41.92;93186.53;1855501;76;21156;-79
2021/05/04 09:08:41;;;;;;;2.50;2.30;;;;;;;10.48;45.38;93185.09;1812601;77;21302;-79
2021/05/04 09:14:37;;;;;;;2.02;1.90;;;;;;;10.65;44.88;93182.84;1824576;78;21172;-81
2021/05/04 09:17:33;;;;;;;2.45;2.02;;;;;;;10.38;40.89;93169.05;1810684;78;21621;-77
2021/05/04 09:20:10;;;;;;;3.30;3.00;;;;;;;10.07;45.95;93171.55;1831543;77;21087;-76
2021/05/04 09:22:38;;;;;;;2.77;2.20;;;;;;;9.76;42.96;93163.77;1829562;77;21625;-78
2021/05/04 09:25:26;;;;;;;2.83;2.00;;;;;;;9.31;42.47;93165.51;1831508;78;21171;-78
2021/05/04 09:28:06;;;;;;;4.67;3.47;;;;;;;9.10;45.06;93167.69;1716801;79;21283;-80
2021/05/04 09:30:34;;;;;;;1.80;1.70;;;;;;;9.04;45.04;93176.82;1832014;77;21182;-79
2021/05/04 09:33:15;;;;;;;1.42;1.32;;;;;;;9.21;46.94;93167.08;1809745;77;21171;-79
2021/05/04 09:35:43;;;;;;;1.75;1.45;;;;;;;9.53;47.90;93162.14;1810744;77;21357;-79
2021/05/04 09:38:16;;;;;;;1.98;1.60;;;;;;;9.77;46.67;93147.66;1817256;78;21695;-79
2021/05/04 09:40:45;;;;;;;1.65;1.55;;;;;;;9.93;46.79;93149.92;1787244;77;21192;-78
2021/05/04 09:43:23;;;;;;;1.70;1.60;;;;;;;9.97;46.02;93142.52;1829785;78;21147;-80
2021/05/04 09:45:55;;;;;;;2.58;1.50;;;;;;;9.97;45.86;93152.80;1777100;79;21168;-79
2021/05/04 09:48:31;;;;;;;1.98;1.65;;;;;;;10.09;46.56;93153.51;1874550;76;21885;-78
2021/05/04 09:51:11;;;;;;;2.33;1.80;;;;;;;10.22;44.56;93147.19;1816629;77;21641;-78
2021/05/04 09:53:49;;;;;;;1.82;1.47;;;;;;;10.26;44.99;93140.40;1830044;77;21142;-78
2021/05/04 09:56:12;;;;;;;2.02;1.72;;;;;;;10.40;46.37;93137.58;1781318;79;21139;-78
2021/05/04 09:58:49;;;;;;;1.82;1.02;;;;;;;10.63;45.35;93143.80;1771956;78;22328;-79
2021/05/04 10:01:18;;;;;;;1.45;1.35;;;;;;;10.74;43.68;93139.63;1787510;80;21192;-78
2021/05/04 10:03:48;;;;;;;1.82;1.65;;;;;;;10.65;43.62;93142.05;1827734;78;21180;-76
2021/05/04 10:06:17;;;;;;;1.67;1.57;;;;;;;10.52;43.93;93151.86;1818477;78;21159;-77
2021/05/04 10:08:45;;;;;;;1.80;1.62;;;;;;;10.41;44.39;93141.07;1807669;78;21163;-79
2021/05/04 10:11:19;;;;;;;2.25;1.62;;;;;;;10.38;42.50;93152.73;1808850;78;21197;-77
2021/05/04 10:13:54;;;;;;;1.82;1.57;;;;;;;10.32;42.65;93152.41;1832754;77;21507;-81
2021/05/04 10:16:29;;;;;;;1.75;1.50;;;;;;;10.20;44.61;93165.84;1813217;77;21430;-78
2021/05/04 10:19:13;;;;;;;1.82;1.70;;;;;;;10.24;41.38;93150.88;1805879;79;21203;-77
2021/05/04 10:21:41;;;;;;;2.00;1.80;;;;;;;10.31;40.96;93139.99;1741068;82;21198;-83
2021/05/04 10:24:10;;;;;;;2.35;1.82;;;;;;;10.34;42.72;93127.53;1733739;79;21122;-84
2021/05/04 10:26:37;;;;;;;1.67;1.57;;;;;;;10.34;43.13;93130.25;1797009;79;21448;-86
2021/05/04 10:29:08;;;;;;;2.15;1.90;;;;;;;10.41;41.80;93135.63;1789047;79;21177;-87
2021/05/04 10:31:46;;;;;;;2.02;1.70;;;;;;;10.46;42.37;93129.78;1800954;79;21777;-79
2021/05/04 10:34:29;;;;;;;4.10;1.67;;;;;;;10.54;40.21;93127.19;1790376;80;21104;-82
2021/05/04 10:37:13;;;;;;;1.95;1.65;;;;;;;10.47;38.73;93117.73;1776018;80;21095;-83
2021/05/04 10:39:46;;;;;;;2.45;1.55;;;;;;;10.38;39.00;93116.05;1832209;77;21353;-82
2021/05/04 10:42:33;;;;;;;;;;;;;;;;;;;;;
2021/05/04 10:45:09;;;;;;;1.47;1.37;;;;;;;10.70;40.52;93112.47;1889326;75;28066;-81
2021/05/04 10:47:46;;;;;;;1.80;1.40;;;;;;;10.84;41.70;93118.37;1825352;77;21151;-82
2021/05/04 10:50:23;;;;;;;1.60;1.50;;;;;;;10.96;41.14;93111.64;1832854;78;22237;-85
2021/05/04 10:53:00;;;;;;;1.57;1.47;;;;;;;11.07;42.24;93097.93;1832353;77;21435;-86
2021/05/04 10:55:58;;;;;;;1.47;1.35;;;;;;;11.18;40.04;93098.58;1836341;78;21737;-83
2021/05/04 10:58:27;;;;;;;3.52;1.60;;;;;;;11.21;38.94;93105.94;1836869;78;21665;-83
2021/05/04 11:00:58;;;;;;;1.62;1.50;;;;;;;11.16;38.71;93096.84;1824290;78;21291;-77
2021/05/04 11:03:34;;;;;;;1.72;1.62;;;;;;;11.09;38.57;93115.97;1756130;80;21441;-84
2021/05/04 11:06:07;;;;;;;5.03;1.77;;;;;;;11.02;39.11;93120.92;1854104;77;21738;-79
2021/05/04 11:08:51;;;;;;;2.15;1.70;;;;;;;10.98;39.47;93116.66;1778270;77;21061;-83
2021/05/04 11:11:26;;;;;;;2.83;2.33;;;;;;;10.88;37.88;93109.58;1783547;80;21243;-84
2021/05/04 11:14:10;;;;;;;2.55;1.98;;;;;;;10.67;39.10;93118.70;1735565;80;21156;-81
2021/05/04 11:16:46;;;;;;;1.52;1.27;;;;;;;10.67;41.78;93107.06;1784174;79;21169;-84
2021/05/04 11:19:30;;;;;;;2.98;1.65;;;;;;;10.80;38.47;93098.59;1789298;80;21188;-82
2021/05/04 11:22:11;;;;;;;1.90;1.80;;;;;;;10.79;38.65;93098.39;1789935;80;21583;-86
2021/05/04 11:24:49;;;;;;;2.30;1.40;;;;;;;10.79;40.34;93100.34;1785739;80;21199;-85
2021/05/04 11:27:25;;;;;;;2.62;1.27;;;;;;;10.80;37.90;93091.03;1863339;77;21166;-83
2021/05/04 11:29:55;;;;;;;1.32;1.22;;;;;;;10.68;38.54;93080.84;1865474;76;26057;-79
2021/05/04 11:32:40;;;;;;;1.42;1.32;;;;;;;10.58;39.13;93091.22;1867271;76;21123;-79
2021/05/04 11:35:11;;;;;;;1.52;1.20;;;;;;;10.45;38.81;93084.73;1864196;77;21184;-79
2021/05/04 11:37:46;;;;;;;1.27;1.17;;;;;;;10.53;41.74;93069.92;1864457;77;21632;-80
2021/05/04 11:40:24;;;;;;;1.55;1.35;;;;;;;10.85;41.76;93066.86;1862135;77;21162;-83
2021/05/04 11:42:57;;;;;;;2.27;0.93;;;;;;;11.11;40.48;93077.66;1863925;77;21360;-83
2021/05/04 11:45:33;;;;;;;2.30;1.10;;;;;;;11.12;39.96;93056.06;1863270;77;21155;-82
2021/05/04 11:48:09;;;;;;;2.50;1.40;;;;;;;11.20;41.07;93054.03;1863769;77;21146;-83
2021/05/04 11:50:40;;;;;;;2.02;1.12;;;;;;;11.34;38.24;93054.45;1829757;76;21188;-84
2021/05/04 11:53:11;;;;;;;1.35;1.10;;;;;;;11.51;38.52;93045.86;1818725;78;22163;-83
2021/05/04 11:55:47;;;;;;;1.10;1.00;;;;;;;11.65;38.77;93044.30;1819150;77;21438;-82